sensor_id;sensor_type;location;lat;lon;timestamp;P1;durP1;ratioP1;P2;durP2;ratioP2
69779;SDS011;57052;55.602;38.096;2023-05-10T00:00:47;15.07;;;8.32;;
69779;SDS011;57052;55.602;38.096;2023-05-10T00:03:12;21.35;;;8.25;;
69779;SDS011;57052;55.602;38.096;2023-05-10T00:05:38;15.23;;;8.30;;
69779;SDS011;57052;55.602;38.096;2023-05-10T00:08:04;17.95;;;7.95;;
69779;SDS011;57052;55.602;38.096;2023-05-10T00:10:29;25.13;;;8.50;;
69779;SDS011;57052;55.602;38.096;2023-05-10T00:12:55;19.85;;;9.57;;
69779;SDS011;57052;55.602;38.096;2023-05-10T00:15:21;16.77;;;8.85;;
69779;SDS011;57052;55.602;38.096;2023-05-10T00:17:46;17.45;;;8.88;;
69779;SDS011;57052;55.602;38.096;2023-05-10T00:20:12;18.13;;;9.60;;
69779;SDS011;57052;55.602;38.096;2023-05-10T00:22:38;26.10;;;10.27;;
69779;SDS011;57052;55.602;38.096;2023-05-10T00:25:03;22.73;;;10.70;;
69779;SDS011;57052;55.602;38.096;2023-05-10T00:27:29;21.00;;;10.85;;
69779;SDS011;57052;55.602;38.096;2023-05-10T00:29:55;16.85;;;10.20;;
69779;SDS011;57052;55.602;38.096;2023-05-10T00:32:21;21.60;;;9.65;;
69779;SDS011;57052;55.602;38.096;2023-05-10T00:34:46;22.23;;;9.77;;
69779;SDS011;57052;55.602;38.096;2023-05-10T00:37:12;17.13;;;9.70;;
69779;SDS011;57052;55.602;38.096;2023-05-10T00:39:38;20.80;;;10.10;;
69779;SDS011;57052;55.602;38.096;2023-05-10T00:42:03;20.00;;;9.80;;
69779;SDS011;57052;55.602;38.096;2023-05-10T00:44:29;19.80;;;10.35;;
69779;SDS011;57052;55.602;38.096;2023-05-10T00:46:56;20.10;;;10.05;;
69779;SDS011;57052;55.602;38.096;2023-05-10T00:49:23;19.00;;;10.15;;
69779;SDS011;57052;55.602;38.096;2023-05-10T00:51:48;21.23;;;9.35;;
69779;SDS011;57052;55.602;38.096;2023-05-10T00:54:15;19.70;;;9.55;;
69779;SDS011;57052;55.602;38.096;2023-05-10T00:56:41;19.88;;;8.95;;
69779;SDS011;57052;55.602;38.096;2023-05-10T00:59:07;18.08;;;8.45;;
69779;SDS011;57052;55.602;38.096;2023-05-10T01:01:34;20.88;;;8.15;;
69779;SDS011;57052;55.602;38.096;2023-05-10T01:04:01;19.13;;;8.55;;
69779;SDS011;57052;55.602;38.096;2023-05-10T01:06:28;18.33;;;8.63;;
69779;SDS011;57052;55.602;38.096;2023-05-10T01:08:54;21.67;;;8.57;;
69779;SDS011;57052;55.602;38.096;2023-05-10T01:11:21;14.88;;;8.80;;
69779;SDS011;57052;55.602;38.096;2023-05-10T01:13:47;18.80;;;8.30;;
69779;SDS011;57052;55.602;38.096;2023-05-10T01:16:20;17.60;;;8.27;;
69779;SDS011;57052;55.602;38.096;2023-05-10T01:18:45;18.40;;;8.98;;
69779;SDS011;57052;55.602;38.096;2023-05-10T01:21:31;16.25;;;8.68;;
69779;SDS011;57052;55.602;38.096;2023-05-10T01:33:30;20.50;;;8.48;;
69779;SDS011;57052;55.602;38.096;2023-05-10T01:41:49;16.95;;;7.88;;
69779;SDS011;57052;55.602;38.096;2023-05-10T01:46:58;18.48;;;8.10;;
69779;SDS011;57052;55.602;38.096;2023-05-10T01:49:31;17.33;;;8.13;;
69779;SDS011;57052;55.602;38.096;2023-05-10T01:52:01;20.20;;;8.60;;
69779;SDS011;57052;55.602;38.096;2023-05-10T01:54:33;19.50;;;8.25;;
69779;SDS011;57052;55.602;38.096;2023-05-10T01:57:04;15.52;;;7.95;;
69779;SDS011;57052;55.602;38.096;2023-05-10T01:59:34;18.10;;;8.00;;
69779;SDS011;57052;55.602;38.096;2023-05-10T02:02:02;21.10;;;9.35;;
69779;SDS011;57052;55.602;38.096;2023-05-10T02:04:29;15.18;;;8.07;;
69779;SDS011;57052;55.602;38.096;2023-05-10T02:06:57;16.27;;;7.82;;
69779;SDS011;57052;55.602;38.096;2023-05-10T02:09:22;16.52;;;7.93;;
69779;SDS011;57052;55.602;38.096;2023-05-10T02:11:50;13.55;;;7.38;;
69779;SDS011;57052;55.602;38.096;2023-05-10T02:14:17;22.90;;;8.63;;
69779;SDS011;57052;55.602;38.096;2023-05-10T02:16:44;17.20;;;8.23;;
69779;SDS011;57052;55.602;38.096;2023-05-10T02:19:11;17.23;;;7.97;;
69779;SDS011;57052;55.602;38.096;2023-05-10T02:21:59;18.40;;;8.10;;
69779;SDS011;57052;55.602;38.096;2023-05-10T02:24:27;15.80;;;8.52;;
69779;SDS011;57052;55.602;38.096;2023-05-10T02:26:54;17.75;;;8.40;;
69779;SDS011;57052;55.602;38.096;2023-05-10T02:29:22;18.02;;;7.80;;
69779;SDS011;57052;55.602;38.096;2023-05-10T02:31:51;17.13;;;8.05;;
69779;SDS011;57052;55.602;38.096;2023-05-10T02:34:19;16.85;;;8.02;;
69779;SDS011;57052;55.602;38.096;2023-05-10T02:36:47;15.57;;;8.55;;
69779;SDS011;57052;55.602;38.096;2023-05-10T02:39:15;17.48;;;8.38;;
69779;SDS011;57052;55.602;38.096;2023-05-10T02:41:43;15.60;;;8.50;;
69779;SDS011;57052;55.602;38.096;2023-05-10T02:44:11;21.48;;;8.38;;
69779;SDS011;57052;55.602;38.096;2023-05-10T02:46:39;19.67;;;8.52;;
69779;SDS011;57052;55.602;38.096;2023-05-10T02:49:05;18.90;;;8.38;;
69779;SDS011;57052;55.602;38.096;2023-05-10T02:51:32;21.85;;;8.98;;
69779;SDS011;57052;55.602;38.096;2023-05-10T02:54:03;17.20;;;8.40;;
69779;SDS011;57052;55.602;38.096;2023-05-10T02:56:47;16.45;;;8.30;;
69779;SDS011;57052;55.602;38.096;2023-05-10T02:59:35;20.55;;;9.55;;
69779;SDS011;57052;55.602;38.096;2023-05-10T03:02:02;21.20;;;9.07;;
69779;SDS011;57052;55.602;38.096;2023-05-10T03:04:29;20.85;;;9.57;;
69779;SDS011;57052;55.602;38.096;2023-05-10T03:06:54;22.98;;;9.70;;
69779;SDS011;57052;55.602;38.096;2023-05-10T03:09:21;19.95;;;9.38;;
69779;SDS011;57052;55.602;38.096;2023-05-10T03:11:55;20.20;;;9.15;;
69779;SDS011;57052;55.602;38.096;2023-05-10T03:14:45;22.45;;;9.45;;
69779;SDS011;57052;55.602;38.096;2023-05-10T03:17:22;23.63;;;9.45;;
69779;SDS011;57052;55.602;38.096;2023-05-10T03:19:58;27.88;;;10.10;;
69779;SDS011;57052;55.602;38.096;2023-05-10T03:22:31;26.25;;;9.95;;
69779;SDS011;57052;55.602;38.096;2023-05-10T03:25:02;26.85;;;10.35;;
69779;SDS011;57052;55.602;38.096;2023-05-10T03:27:37;26.13;;;10.65;;
69779;SDS011;57052;55.602;38.096;2023-05-10T03:30:12;27.27;;;10.55;;
69779;SDS011;57052;55.602;38.096;2023-05-10T03:35:08;17.50;;;8.80;;
69779;SDS011;57052;55.602;38.096;2023-05-10T03:37:34;21.38;;;10.07;;
69779;SDS011;57052;55.602;38.096;2023-05-10T03:40:01;28.17;;;10.57;;
69779;SDS011;57052;55.602;38.096;2023-05-10T03:42:28;22.90;;;10.02;;
69779;SDS011;57052;55.602;38.096;2023-05-10T03:44:54;21.15;;;10.50;;
69779;SDS011;57052;55.602;38.096;2023-05-10T03:47:20;28.58;;;11.65;;
69779;SDS011;57052;55.602;38.096;2023-05-10T03:49:46;21.23;;;9.88;;
69779;SDS011;57052;55.602;38.096;2023-05-10T03:52:12;23.88;;;9.57;;
69779;SDS011;57052;55.602;38.096;2023-05-10T03:54:37;17.45;;;8.77;;
69779;SDS011;57052;55.602;38.096;2023-05-10T03:57:03;20.23;;;9.07;;
69779;SDS011;57052;55.602;38.096;2023-05-10T03:59:29;18.23;;;8.27;;
69779;SDS011;57052;55.602;38.096;2023-05-10T04:01:55;18.45;;;9.05;;
69779;SDS011;57052;55.602;38.096;2023-05-10T04:04:21;18.52;;;8.85;;
69779;SDS011;57052;55.602;38.096;2023-05-10T04:06:47;18.05;;;8.25;;
69779;SDS011;57052;55.602;38.096;2023-05-10T04:09:12;16.23;;;8.45;;
69779;SDS011;57052;55.602;38.096;2023-05-10T04:11:39;15.38;;;7.72;;
69779;SDS011;57052;55.602;38.096;2023-05-10T04:14:04;18.77;;;8.48;;
69779;SDS011;57052;55.602;38.096;2023-05-10T04:16:30;20.50;;;8.68;;
69779;SDS011;57052;55.602;38.096;2023-05-10T04:18:56;18.20;;;7.72;;
69779;SDS011;57052;55.602;38.096;2023-05-10T04:21:22;17.48;;;7.47;;
69779;SDS011;57052;55.602;38.096;2023-05-10T04:23:48;19.45;;;7.95;;
69779;SDS011;57052;55.602;38.096;2023-05-10T04:26:14;16.23;;;7.78;;
69779;SDS011;57052;55.602;38.096;2023-05-10T04:28:40;15.10;;;7.53;;
69779;SDS011;57052;55.602;38.096;2023-05-10T04:31:06;15.15;;;7.22;;
69779;SDS011;57052;55.602;38.096;2023-05-10T04:33:33;16.80;;;7.80;;
69779;SDS011;57052;55.602;38.096;2023-05-10T04:35:59;17.95;;;7.60;;
69779;SDS011;57052;55.602;38.096;2023-05-10T04:38:26;15.32;;;8.20;;
69779;SDS011;57052;55.602;38.096;2023-05-10T04:40:52;20.02;;;8.02;;
69779;SDS011;57052;55.602;38.096;2023-05-10T04:43:18;15.20;;;7.60;;
69779;SDS011;57052;55.602;38.096;2023-05-10T04:45:44;16.02;;;8.18;;
69779;SDS011;57052;55.602;38.096;2023-05-10T04:48:09;19.30;;;8.60;;
69779;SDS011;57052;55.602;38.096;2023-05-10T04:50:35;18.48;;;8.05;;
69779;SDS011;57052;55.602;38.096;2023-05-10T04:53:01;14.60;;;7.85;;
69779;SDS011;57052;55.602;38.096;2023-05-10T04:55:27;20.63;;;7.60;;
69779;SDS011;57052;55.602;38.096;2023-05-10T04:57:53;17.23;;;7.90;;
69779;SDS011;57052;55.602;38.096;2023-05-10T05:00:21;17.50;;;7.65;;
69779;SDS011;57052;55.602;38.096;2023-05-10T05:02:47;14.40;;;6.75;;
69779;SDS011;57052;55.602;38.096;2023-05-10T05:05:13;13.20;;;6.85;;
69779;SDS011;57052;55.602;38.096;2023-05-10T05:07:39;18.25;;;7.40;;
69779;SDS011;57052;55.602;38.096;2023-05-10T05:10:08;17.30;;;8.07;;
69779;SDS011;57052;55.602;38.096;2023-05-10T05:12:34;16.15;;;7.18;;
69779;SDS011;57052;55.602;38.096;2023-05-10T05:15:00;19.50;;;7.97;;
69779;SDS011;57052;55.602;38.096;2023-05-10T05:17:26;20.20;;;7.88;;
69779;SDS011;57052;55.602;38.096;2023-05-10T05:19:52;20.67;;;8.18;;
69779;SDS011;57052;55.602;38.096;2023-05-10T05:22:18;18.08;;;7.85;;
69779;SDS011;57052;55.602;38.096;2023-05-10T05:24:44;18.02;;;7.35;;
69779;SDS011;57052;55.602;38.096;2023-05-10T05:27:10;15.40;;;7.10;;
69779;SDS011;57052;55.602;38.096;2023-05-10T05:29:36;19.15;;;7.57;;
69779;SDS011;57052;55.602;38.096;2023-05-10T05:32:02;16.70;;;7.03;;
69779;SDS011;57052;55.602;38.096;2023-05-10T05:34:27;16.65;;;7.25;;
69779;SDS011;57052;55.602;38.096;2023-05-10T05:36:53;16.70;;;6.97;;
69779;SDS011;57052;55.602;38.096;2023-05-10T05:39:19;13.02;;;6.38;;
69779;SDS011;57052;55.602;38.096;2023-05-10T05:41:44;13.60;;;5.90;;
69779;SDS011;57052;55.602;38.096;2023-05-10T05:44:11;17.60;;;7.55;;
69779;SDS011;57052;55.602;38.096;2023-05-10T05:46:36;16.05;;;6.45;;
69779;SDS011;57052;55.602;38.096;2023-05-10T05:49:02;15.93;;;6.30;;
69779;SDS011;57052;55.602;38.096;2023-05-10T05:51:28;15.45;;;6.47;;
69779;SDS011;57052;55.602;38.096;2023-05-10T05:53:53;16.35;;;6.03;;
69779;SDS011;57052;55.602;38.096;2023-05-10T05:56:19;12.63;;;5.95;;
69779;SDS011;57052;55.602;38.096;2023-05-10T05:58:52;16.45;;;6.68;;
69779;SDS011;57052;55.602;38.096;2023-05-10T06:01:17;12.48;;;5.45;;
69779;SDS011;57052;55.602;38.096;2023-05-10T06:03:43;13.75;;;5.70;;
69779;SDS011;57052;55.602;38.096;2023-05-10T06:06:08;12.15;;;5.88;;
69779;SDS011;57052;55.602;38.096;2023-05-10T06:08:34;15.60;;;6.40;;
69779;SDS011;57052;55.602;38.096;2023-05-10T06:11:00;13.52;;;6.18;;
69779;SDS011;57052;55.602;38.096;2023-05-10T06:13:26;14.35;;;5.75;;
69779;SDS011;57052;55.602;38.096;2023-05-10T06:15:57;12.48;;;5.88;;
69779;SDS011;57052;55.602;38.096;2023-05-10T06:18:23;13.93;;;6.30;;
69779;SDS011;57052;55.602;38.096;2023-05-10T06:20:49;10.82;;;6.05;;
69779;SDS011;57052;55.602;38.096;2023-05-10T06:23:15;15.27;;;6.43;;
69779;SDS011;57052;55.602;38.096;2023-05-10T06:25:41;17.30;;;5.70;;
69779;SDS011;57052;55.602;38.096;2023-05-10T06:28:06;15.90;;;6.35;;
69779;SDS011;57052;55.602;38.096;2023-05-10T06:30:32;15.57;;;6.07;;
69779;SDS011;57052;55.602;38.096;2023-05-10T06:32:58;13.45;;;6.05;;
69779;SDS011;57052;55.602;38.096;2023-05-10T06:35:24;14.63;;;6.13;;
69779;SDS011;57052;55.602;38.096;2023-05-10T06:37:50;12.27;;;5.72;;
69779;SDS011;57052;55.602;38.096;2023-05-10T06:40:16;11.13;;;5.28;;
69779;SDS011;57052;55.602;38.096;2023-05-10T06:42:42;13.38;;;5.80;;
69779;SDS011;57052;55.602;38.096;2023-05-10T06:45:10;12.30;;;5.60;;
69779;SDS011;57052;55.602;38.096;2023-05-10T06:47:36;14.27;;;5.88;;
69779;SDS011;57052;55.602;38.096;2023-05-10T06:50:02;14.45;;;6.03;;
69779;SDS011;57052;55.602;38.096;2023-05-10T06:52:30;15.35;;;5.47;;
69779;SDS011;57052;55.602;38.096;2023-05-10T06:54:55;12.48;;;5.13;;
69779;SDS011;57052;55.602;38.096;2023-05-10T06:57:21;12.10;;;4.53;;
69779;SDS011;57052;55.602;38.096;2023-05-10T06:59:47;9.52;;;4.43;;
69779;SDS011;57052;55.602;38.096;2023-05-10T07:02:12;8.93;;;4.40;;
69779;SDS011;57052;55.602;38.096;2023-05-10T07:04:40;8.30;;;3.97;;
69779;SDS011;57052;55.602;38.096;2023-05-10T07:07:05;6.85;;;2.97;;
69779;SDS011;57052;55.602;38.096;2023-05-10T07:09:31;7.75;;;2.80;;
69779;SDS011;57052;55.602;38.096;2023-05-10T07:11:57;7.93;;;2.75;;
69779;SDS011;57052;55.602;38.096;2023-05-10T07:14:23;5.38;;;2.08;;
69779;SDS011;57052;55.602;38.096;2023-05-10T07:16:48;5.90;;;2.53;;
69779;SDS011;57052;55.602;38.096;2023-05-10T07:19:14;6.45;;;2.17;;
69779;SDS011;57052;55.602;38.096;2023-05-10T07:21:40;7.70;;;2.30;;
69779;SDS011;57052;55.602;38.096;2023-05-10T07:24:07;4.32;;;2.13;;
69779;SDS011;57052;55.602;38.096;2023-05-10T07:26:33;5.07;;;1.83;;
69779;SDS011;57052;55.602;38.096;2023-05-10T07:28:58;5.28;;;1.80;;
69779;SDS011;57052;55.602;38.096;2023-05-10T07:31:24;4.50;;;1.70;;
69779;SDS011;57052;55.602;38.096;2023-05-10T07:33:50;4.60;;;2.20;;
69779;SDS011;57052;55.602;38.096;2023-05-10T07:36:15;6.85;;;2.25;;
69779;SDS011;57052;55.602;38.096;2023-05-10T07:38:41;6.20;;;2.15;;
69779;SDS011;57052;55.602;38.096;2023-05-10T07:41:07;5.07;;;2.20;;
69779;SDS011;57052;55.602;38.096;2023-05-10T07:43:32;4.78;;;2.05;;
69779;SDS011;57052;55.602;38.096;2023-05-10T07:45:58;13.73;;;7.10;;
69779;SDS011;57052;55.602;38.096;2023-05-10T07:48:25;6.03;;;2.33;;
69779;SDS011;57052;55.602;38.096;2023-05-10T07:50:51;5.32;;;1.90;;
69779;SDS011;57052;55.602;38.096;2023-05-10T07:53:17;4.57;;;1.70;;
69779;SDS011;57052;55.602;38.096;2023-05-10T07:55:44;4.30;;;1.90;;
69779;SDS011;57052;55.602;38.096;2023-05-10T07:58:10;3.10;;;1.73;;
69779;SDS011;57052;55.602;38.096;2023-05-10T08:00:35;7.45;;;2.10;;
69779;SDS011;57052;55.602;38.096;2023-05-10T08:03:04;7.40;;;2.00;;
69779;SDS011;57052;55.602;38.096;2023-05-10T08:05:30;7.05;;;1.95;;
69779;SDS011;57052;55.602;38.096;2023-05-10T08:07:56;5.03;;;1.90;;
69779;SDS011;57052;55.602;38.096;2023-05-10T08:10:21;4.00;;;1.58;;
69779;SDS011;57052;55.602;38.096;2023-05-10T08:12:47;7.88;;;2.03;;
69779;SDS011;57052;55.602;38.096;2023-05-10T08:15:13;4.18;;;1.80;;
69779;SDS011;57052;55.602;38.096;2023-05-10T08:17:38;4.90;;;1.77;;
69779;SDS011;57052;55.602;38.096;2023-05-10T08:20:04;4.50;;;1.90;;
69779;SDS011;57052;55.602;38.096;2023-05-10T08:22:31;4.38;;;1.50;;
69779;SDS011;57052;55.602;38.096;2023-05-10T08:24:56;3.92;;;1.95;;
69779;SDS011;57052;55.602;38.096;2023-05-10T08:27:22;3.00;;;1.90;;
69779;SDS011;57052;55.602;38.096;2023-05-10T08:29:48;3.58;;;2.00;;
69779;SDS011;57052;55.602;38.096;2023-05-10T08:32:13;4.18;;;1.73;;
69779;SDS011;57052;55.602;38.096;2023-05-10T08:34:39;3.95;;;1.60;;
69779;SDS011;57052;55.602;38.096;2023-05-10T08:37:05;4.97;;;1.83;;
69779;SDS011;57052;55.602;38.096;2023-05-10T08:39:33;8.13;;;2.00;;
69779;SDS011;57052;55.602;38.096;2023-05-10T08:42:01;3.05;;;1.67;;
69779;SDS011;57052;55.602;38.096;2023-05-10T08:44:32;3.45;;;1.58;;
69779;SDS011;57052;55.602;38.096;2023-05-10T08:47:01;3.15;;;1.52;;
69779;SDS011;57052;55.602;38.096;2023-05-10T08:49:30;4.82;;;1.67;;
69779;SDS011;57052;55.602;38.096;2023-05-10T08:51:56;4.70;;;1.90;;
69779;SDS011;57052;55.602;38.096;2023-05-10T08:54:24;3.83;;;1.88;;
69779;SDS011;57052;55.602;38.096;2023-05-10T08:56:50;2.83;;;1.60;;
69779;SDS011;57052;55.602;38.096;2023-05-10T08:59:15;4.45;;;1.83;;
69779;SDS011;57052;55.602;38.096;2023-05-10T09:01:42;4.47;;;1.80;;
69779;SDS011;57052;55.602;38.096;2023-05-10T09:04:10;5.38;;;2.03;;
69779;SDS011;57052;55.602;38.096;2023-05-10T09:06:37;3.33;;;1.52;;
69779;SDS011;57052;55.602;38.096;2023-05-10T09:09:03;3.60;;;1.75;;
69779;SDS011;57052;55.602;38.096;2023-05-10T09:11:29;3.55;;;1.60;;
69779;SDS011;57052;55.602;38.096;2023-05-10T09:13:55;4.18;;;1.88;;
69779;SDS011;57052;55.602;38.096;2023-05-10T09:16:21;2.25;;;1.50;;
69779;SDS011;57052;55.602;38.096;2023-05-10T09:18:47;3.42;;;1.60;;
69779;SDS011;57052;55.602;38.096;2023-05-10T09:21:14;3.50;;;1.70;;
69779;SDS011;57052;55.602;38.096;2023-05-10T09:23:44;4.40;;;1.88;;
69779;SDS011;57052;55.602;38.096;2023-05-10T09:26:11;4.05;;;1.58;;
69779;SDS011;57052;55.602;38.096;2023-05-10T09:28:53;4.20;;;2.22;;
69779;SDS011;57052;55.602;38.096;2023-05-10T09:31:21;4.72;;;1.60;;
69779;SDS011;57052;55.602;38.096;2023-05-10T09:33:47;2.92;;;1.90;;
69779;SDS011;57052;55.602;38.096;2023-05-10T09:36:14;3.65;;;1.75;;
69779;SDS011;57052;55.602;38.096;2023-05-10T09:38:46;4.25;;;1.65;;
69779;SDS011;57052;55.602;38.096;2023-05-10T09:41:17;6.63;;;1.92;;
69779;SDS011;57052;55.602;38.096;2023-05-10T09:43:43;4.78;;;1.80;;
69779;SDS011;57052;55.602;38.096;2023-05-10T09:46:09;3.70;;;1.70;;
69779;SDS011;57052;55.602;38.096;2023-05-10T09:48:45;2.92;;;1.70;;
69779;SDS011;57052;55.602;38.096;2023-05-10T09:51:22;2.78;;;1.67;;
69779;SDS011;57052;55.602;38.096;2023-05-10T09:56:41;4.25;;;1.60;;
69779;SDS011;57052;55.602;38.096;2023-05-10T09:59:09;4.28;;;1.60;;
69779;SDS011;57052;55.602;38.096;2023-05-10T10:01:37;3.10;;;1.70;;
69779;SDS011;57052;55.602;38.096;2023-05-10T10:04:04;5.10;;;1.92;;
69779;SDS011;57052;55.602;38.096;2023-05-10T10:06:37;2.30;;;1.40;;
69779;SDS011;57052;55.602;38.096;2023-05-10T10:09:04;5.32;;;1.77;;
69779;SDS011;57052;55.602;38.096;2023-05-10T10:11:31;3.67;;;1.83;;
69779;SDS011;57052;55.602;38.096;2023-05-10T10:13:57;2.83;;;1.70;;
69779;SDS011;57052;55.602;38.096;2023-05-10T10:16:24;5.80;;;2.13;;
69779;SDS011;57052;55.602;38.096;2023-05-10T10:18:50;6.43;;;1.70;;
69779;SDS011;57052;55.602;38.096;2023-05-10T10:21:15;3.33;;;1.67;;
69779;SDS011;57052;55.602;38.096;2023-05-10T10:23:42;4.40;;;1.77;;
69779;SDS011;57052;55.602;38.096;2023-05-10T10:26:08;2.63;;;1.60;;
69779;SDS011;57052;55.602;38.096;2023-05-10T10:31:03;2.13;;;1.40;;
69779;SDS011;57052;55.602;38.096;2023-05-10T10:36:17;2.17;;;1.50;;
69779;SDS011;57052;55.602;38.096;2023-05-10T10:46:58;4.97;;;1.63;;
69779;SDS011;57052;55.602;38.096;2023-05-10T10:49:24;4.43;;;1.70;;
69779;SDS011;57052;55.602;38.096;2023-05-10T10:54:50;3.10;;;1.73;;
69779;SDS011;57052;55.602;38.096;2023-05-10T10:57:18;3.47;;;1.80;;
69779;SDS011;57052;55.602;38.096;2023-05-10T10:59:46;2.80;;;1.70;;
69779;SDS011;57052;55.602;38.096;2023-05-10T11:05:23;3.58;;;1.77;;
69779;SDS011;57052;55.602;38.096;2023-05-10T11:07:53;5.93;;;1.80;;
69779;SDS011;57052;55.602;38.096;2023-05-10T11:10:20;5.18;;;2.00;;
69779;SDS011;57052;55.602;38.096;2023-05-10T11:12:59;4.80;;;1.83;;
69779;SDS011;57052;55.602;38.096;2023-05-10T11:15:36;4.30;;;1.90;;
69779;SDS011;57052;55.602;38.096;2023-05-10T11:18:18;4.28;;;1.70;;
69779;SDS011;57052;55.602;38.096;2023-05-10T11:20:52;3.22;;;1.70;;
69779;SDS011;57052;55.602;38.096;2023-05-10T11:23:21;6.88;;;1.85;;
69779;SDS011;57052;55.602;38.096;2023-05-10T11:25:48;4.80;;;1.70;;
69779;SDS011;57052;55.602;38.096;2023-05-10T11:28:18;3.03;;;1.63;;
69779;SDS011;57052;55.602;38.096;2023-05-10T11:30:45;3.08;;;1.70;;
69779;SDS011;57052;55.602;38.096;2023-05-10T11:33:15;4.22;;;1.70;;
69779;SDS011;57052;55.602;38.096;2023-05-10T11:35:42;5.35;;;1.88;;
69779;SDS011;57052;55.602;38.096;2023-05-10T11:38:08;26.17;;;2.72;;
69779;SDS011;57052;55.602;38.096;2023-05-10T11:40:35;4.25;;;1.80;;
69779;SDS011;57052;55.602;38.096;2023-05-10T11:43:02;6.40;;;2.00;;
69779;SDS011;57052;55.602;38.096;2023-05-10T11:45:29;6.55;;;1.70;;
69779;SDS011;57052;55.602;38.096;2023-05-10T11:47:58;3.25;;;1.70;;
69779;SDS011;57052;55.602;38.096;2023-05-10T11:50:25;4.28;;;2.05;;
69779;SDS011;57052;55.602;38.096;2023-05-10T11:52:52;5.53;;;2.22;;
69779;SDS011;57052;55.602;38.096;2023-05-10T11:55:19;7.65;;;2.30;;
69779;SDS011;57052;55.602;38.096;2023-05-10T11:57:45;3.78;;;1.92;;
69779;SDS011;57052;55.602;38.096;2023-05-10T12:00:14;4.38;;;2.38;;
69779;SDS011;57052;55.602;38.096;2023-05-10T12:02:40;3.80;;;2.03;;
69779;SDS011;57052;55.602;38.096;2023-05-10T12:05:06;4.03;;;1.90;;
69779;SDS011;57052;55.602;38.096;2023-05-10T12:07:32;3.97;;;1.88;;
69779;SDS011;57052;55.602;38.096;2023-05-10T12:10:07;4.32;;;2.13;;
69779;SDS011;57052;55.602;38.096;2023-05-10T12:12:38;3.28;;;1.90;;
69779;SDS011;57052;55.602;38.096;2023-05-10T12:17:43;2.83;;;1.80;;
69779;SDS011;57052;55.602;38.096;2023-05-10T12:20:13;3.75;;;1.60;;
69779;SDS011;57052;55.602;38.096;2023-05-10T12:22:41;5.47;;;1.70;;
69779;SDS011;57052;55.602;38.096;2023-05-10T12:25:09;4.53;;;1.80;;
69779;SDS011;57052;55.602;38.096;2023-05-10T12:27:35;3.78;;;1.92;;
69779;SDS011;57052;55.602;38.096;2023-05-10T12:30:01;6.75;;;2.08;;
69779;SDS011;57052;55.602;38.096;2023-05-10T12:32:40;5.30;;;2.15;;
69779;SDS011;57052;55.602;38.096;2023-05-10T12:35:06;5.70;;;2.10;;
69779;SDS011;57052;55.602;38.096;2023-05-10T12:37:33;5.10;;;2.30;;
69779;SDS011;57052;55.602;38.096;2023-05-10T12:40:07;6.30;;;2.25;;
69779;SDS011;57052;55.602;38.096;2023-05-10T12:42:36;3.50;;;1.77;;
69779;SDS011;57052;55.602;38.096;2023-05-10T12:45:03;5.03;;;1.85;;
69779;SDS011;57052;55.602;38.096;2023-05-10T12:47:33;7.47;;;2.30;;
69779;SDS011;57052;55.602;38.096;2023-05-10T12:49:59;4.20;;;1.85;;
69779;SDS011;57052;55.602;38.096;2023-05-10T12:52:26;3.65;;;1.70;;
69779;SDS011;57052;55.602;38.096;2023-05-10T12:54:53;8.75;;;2.08;;
69779;SDS011;57052;55.602;38.096;2023-05-10T12:57:20;4.38;;;1.75;;
69779;SDS011;57052;55.602;38.096;2023-05-10T12:59:46;4.80;;;1.70;;
69779;SDS011;57052;55.602;38.096;2023-05-10T13:02:11;4.90;;;1.90;;
69779;SDS011;57052;55.602;38.096;2023-05-10T13:04:38;4.63;;;1.95;;
69779;SDS011;57052;55.602;38.096;2023-05-10T13:07:08;4.75;;;1.83;;
69779;SDS011;57052;55.602;38.096;2023-05-10T13:09:34;4.07;;;2.10;;
69779;SDS011;57052;55.602;38.096;2023-05-10T13:12:00;5.20;;;1.77;;
69779;SDS011;57052;55.602;38.096;2023-05-10T13:14:26;5.93;;;2.10;;
69779;SDS011;57052;55.602;38.096;2023-05-10T13:16:52;5.50;;;1.90;;
69779;SDS011;57052;55.602;38.096;2023-05-10T13:19:18;3.65;;;1.90;;
69779;SDS011;57052;55.602;38.096;2023-05-10T13:21:43;3.92;;;2.00;;
69779;SDS011;57052;55.602;38.096;2023-05-10T13:24:12;3.58;;;1.80;;
69779;SDS011;57052;55.602;38.096;2023-05-10T13:26:42;3.95;;;2.05;;
69779;SDS011;57052;55.602;38.096;2023-05-10T13:29:08;8.63;;;2.28;;
69779;SDS011;57052;55.602;38.096;2023-05-10T13:31:34;6.13;;;1.83;;
69779;SDS011;57052;55.602;38.096;2023-05-10T13:34:01;3.17;;;1.90;;
69779;SDS011;57052;55.602;38.096;2023-05-10T13:36:27;3.95;;;1.70;;
69779;SDS011;57052;55.602;38.096;2023-05-10T13:38:53;3.25;;;1.92;;
69779;SDS011;57052;55.602;38.096;2023-05-10T13:41:19;3.78;;;1.83;;
69779;SDS011;57052;55.602;38.096;2023-05-10T13:43:45;3.88;;;1.70;;
69779;SDS011;57052;55.602;38.096;2023-05-10T13:46:10;5.47;;;1.77;;
69779;SDS011;57052;55.602;38.096;2023-05-10T13:48:36;4.28;;;1.90;;
69779;SDS011;57052;55.602;38.096;2023-05-10T13:51:02;4.28;;;1.90;;
69779;SDS011;57052;55.602;38.096;2023-05-10T13:53:28;2.97;;;1.70;;
69779;SDS011;57052;55.602;38.096;2023-05-10T13:55:54;4.60;;;1.80;;
69779;SDS011;57052;55.602;38.096;2023-05-10T13:58:19;4.03;;;1.70;;
69779;SDS011;57052;55.602;38.096;2023-05-10T14:00:45;6.15;;;1.92;;
69779;SDS011;57052;55.602;38.096;2023-05-10T14:03:11;4.13;;;1.85;;
69779;SDS011;57052;55.602;38.096;2023-05-10T14:05:37;4.93;;;2.60;;
69779;SDS011;57052;55.602;38.096;2023-05-10T14:08:02;6.75;;;1.90;;
69779;SDS011;57052;55.602;38.096;2023-05-10T14:10:29;6.63;;;2.17;;
69779;SDS011;57052;55.602;38.096;2023-05-10T14:12:55;4.60;;;1.90;;
69779;SDS011;57052;55.602;38.096;2023-05-10T14:15:21;2.67;;;1.60;;
69779;SDS011;57052;55.602;38.096;2023-05-10T14:17:46;4.15;;;1.73;;
69779;SDS011;57052;55.602;38.096;2023-05-10T14:20:12;4.93;;;1.70;;
69779;SDS011;57052;55.602;38.096;2023-05-10T14:22:38;2.78;;;1.50;;
69779;SDS011;57052;55.602;38.096;2023-05-10T14:25:04;4.18;;;1.75;;
69779;SDS011;57052;55.602;38.096;2023-05-10T14:27:31;5.82;;;2.10;;
69779;SDS011;57052;55.602;38.096;2023-05-10T14:29:57;5.85;;;1.67;;
69779;SDS011;57052;55.602;38.096;2023-05-10T14:32:23;5.25;;;1.80;;
69779;SDS011;57052;55.602;38.096;2023-05-10T14:34:48;5.80;;;2.10;;
69779;SDS011;57052;55.602;38.096;2023-05-10T14:37:14;10.38;;;2.30;;
69779;SDS011;57052;55.602;38.096;2023-05-10T14:39:40;7.97;;;2.20;;
69779;SDS011;57052;55.602;38.096;2023-05-10T14:42:07;5.38;;;1.80;;
69779;SDS011;57052;55.602;38.096;2023-05-10T14:44:33;4.78;;;2.00;;
69779;SDS011;57052;55.602;38.096;2023-05-10T14:46:59;3.33;;;1.90;;
69779;SDS011;57052;55.602;38.096;2023-05-10T14:49:25;4.63;;;2.08;;
69779;SDS011;57052;55.602;38.096;2023-05-10T14:51:51;5.00;;;2.17;;
69779;SDS011;57052;55.602;38.096;2023-05-10T14:54:18;4.95;;;1.90;;
69779;SDS011;57052;55.602;38.096;2023-05-10T14:56:43;6.10;;;1.85;;
69779;SDS011;57052;55.602;38.096;2023-05-10T14:59:10;7.13;;;2.47;;
69779;SDS011;57052;55.602;38.096;2023-05-10T15:01:35;5.80;;;2.00;;
69779;SDS011;57052;55.602;38.096;2023-05-10T15:04:03;6.78;;;2.22;;
69779;SDS011;57052;55.602;38.096;2023-05-10T15:06:32;6.82;;;2.00;;
69779;SDS011;57052;55.602;38.096;2023-05-10T15:09:00;4.60;;;1.80;;
69779;SDS011;57052;55.602;38.096;2023-05-10T15:11:27;7.32;;;2.03;;
69779;SDS011;57052;55.602;38.096;2023-05-10T15:13:54;3.33;;;1.80;;